createdAt,value
2023-01-08T00:00:29.559Z,45.33
2023-01-08T00:03:18.354Z,45.49
2023-01-08T00:06:09.162Z,45.43
2023-01-08T00:08:59.305Z,45.63
2023-01-08T00:11:49.214Z,45.72
2023-01-08T00:14:37.961Z,45.56
2023-01-08T00:17:26.637Z,45.32
2023-01-08T00:20:16.937Z,46.11
2023-01-08T00:23:05.646Z,45.83
2023-01-08T00:25:55.699Z,45.81
2023-01-08T00:28:44.437Z,46.27
2023-01-08T00:31:33.233Z,46.13
2023-01-08T00:34:21.815Z,46.18
2023-01-08T00:37:10.504Z,46.18
2023-01-08T00:39:59.170Z,46.40
2023-01-08T00:42:49.335Z,46.52
2023-01-08T00:45:37.948Z,46.41
2023-01-08T00:48:26.711Z,46.73
2023-01-08T00:51:15.393Z,46.45
2023-01-08T00:54:04.041Z,46.54
2023-01-08T00:56:52.600Z,46.75
2023-01-08T00:59:42.706Z,47.03
2023-01-08T01:02:31.319Z,47.09
2023-01-08T01:05:20.122Z,47.15
2023-01-08T01:08:08.681Z,47.24
2023-01-08T01:10:57.442Z,47.21
2023-01-08T01:13:46.067Z,47.29
2023-01-08T01:16:36.484Z,47.38
2023-01-08T01:19:25.218Z,47.19
2023-01-08T01:22:13.896Z,47.05
2023-01-08T01:25:02.657Z,47.51
2023-01-08T01:27:51.282Z,47.46
2023-01-08T01:30:39.914Z,47.38
2023-01-08T01:33:29.980Z,47.31
2023-01-08T01:36:19.730Z,47.35
2023-01-08T01:39:08.455Z,47.20
2023-01-08T01:41:57.100Z,47.46
2023-01-08T01:44:47.150Z,47.54
2023-01-08T01:47:38.653Z,47.47
2023-01-08T01:50:31.019Z,47.54
2023-01-08T01:53:21.331Z,47.14
2023-01-08T01:56:10.872Z,47.23
2023-01-08T01:58:59.505Z,47.06
2023-01-08T02:01:48.340Z,47.17
2023-01-08T02:04:37.151Z,47.23
2023-01-08T02:07:31.443Z,47.29
2023-01-08T02:10:24.086Z,47.48
2023-01-08T02:13:16.036Z,47.67
2023-01-08T02:16:09.780Z,47.35
2023-01-08T02:19:00.084Z,47.42
2023-01-08T02:22:02.794Z,47.24
2023-01-08T02:24:57.414Z,47.64
2023-01-08T02:27:49.390Z,47.58
2023-01-08T02:30:38.075Z,47.48
2023-01-08T02:33:29.500Z,47.37
2023-01-08T02:36:34.318Z,47.69
2023-01-08T02:39:37.517Z,47.43
2023-01-08T02:42:30.686Z,47.51
2023-01-08T02:45:30.238Z,47.74
2023-01-08T02:48:23.524Z,47.62
2023-01-08T02:51:18.581Z,47.71
2023-01-08T02:54:13.571Z,47.56
2023-01-08T02:57:05.822Z,47.89
2023-01-08T02:59:54.754Z,47.69
2023-01-08T03:02:45.177Z,47.88
2023-01-08T03:05:34.373Z,47.86
2023-01-08T03:08:23.289Z,47.69
2023-01-08T03:11:13.397Z,47.79
2023-01-08T03:14:06.267Z,47.83
2023-01-08T03:17:00.414Z,47.66
2023-01-08T03:19:52.195Z,47.53
2023-01-08T03:22:42.612Z,47.72
2023-01-08T03:25:32.271Z,47.64
2023-01-08T03:28:24.368Z,47.59
2023-01-08T03:31:15.870Z,47.42
2023-01-08T03:34:05.874Z,47.42
2023-01-08T03:36:57.639Z,47.61
2023-01-08T03:39:49.194Z,47.63
2023-01-08T03:42:37.859Z,47.91
2023-01-08T03:45:27.714Z,47.65
2023-01-08T03:48:16.612Z,47.42
2023-01-08T03:51:05.536Z,47.48
2023-01-08T03:53:58.660Z,47.65
2023-01-08T03:56:47.412Z,47.65
2023-01-08T03:59:36.117Z,47.82
2023-01-08T04:02:24.975Z,47.74
2023-01-08T04:05:13.709Z,47.91
2023-01-08T04:08:02.230Z,47.64
2023-01-08T04:10:52.207Z,47.50
2023-01-08T04:13:40.899Z,47.83
2023-01-08T04:16:29.519Z,47.51
2023-01-08T04:19:18.188Z,47.60
2023-01-08T04:22:06.772Z,47.92
2023-01-08T04:24:55.407Z,47.49
2023-01-08T04:27:45.386Z,47.72
2023-01-08T04:30:33.997Z,47.55
2023-01-08T04:33:22.642Z,47.41
2023-01-08T04:36:11.629Z,47.39
2023-01-08T04:39:00.196Z,47.15
2023-01-08T04:41:48.871Z,47.52
2023-01-08T04:44:38.936Z,47.56
2023-01-08T04:47:27.554Z,47.28
2023-01-08T04:50:16.234Z,47.56
2023-01-08T04:53:04.908Z,47.43
2023-01-08T04:55:54.321Z,47.58
2023-01-08T04:58:42.931Z,47.40
2023-01-08T05:01:33.077Z,47.37
2023-01-08T05:04:21.769Z,47.36
2023-01-08T05:07:10.371Z,47.13
2023-01-08T05:09:58.965Z,47.08
2023-01-08T05:12:47.514Z,47.26
2023-01-08T05:15:36.129Z,47.09
2023-01-08T05:18:26.217Z,46.95
2023-01-08T05:21:14.796Z,46.85
2023-01-08T05:24:03.456Z,47.04
2023-01-08T05:26:52.102Z,47.11
2023-01-08T05:29:40.665Z,46.86
2023-01-08T05:32:29.303Z,47.07
2023-01-08T05:35:19.396Z,47.11
2023-01-08T05:38:08.092Z,47.04
2023-01-08T05:40:56.717Z,47.33
2023-01-08T05:43:45.363Z,47.03
2023-01-08T05:46:34.071Z,47.08
2023-01-08T05:49:23.890Z,46.99
2023-01-08T05:52:14.068Z,47.02
2023-01-08T05:55:02.733Z,47.25
2023-01-08T05:57:51.332Z,46.91
2023-01-08T06:00:40.286Z,47.16
2023-01-08T06:03:28.934Z,46.75
2023-01-08T06:06:18.344Z,46.83
2023-01-08T06:09:09.054Z,46.80
2023-01-08T06:11:58.092Z,46.75
2023-01-08T06:14:46.661Z,46.89
2023-01-08T06:17:36.657Z,46.88
2023-01-08T06:20:25.368Z,46.68
2023-01-08T06:23:13.997Z,46.76
2023-01-08T06:26:04.928Z,46.67
2023-01-08T06:28:53.566Z,46.71
2023-01-08T06:31:42.279Z,46.80
2023-01-08T06:34:30.968Z,46.74
2023-01-08T06:37:19.560Z,46.83
2023-01-08T06:40:09.208Z,46.71
2023-01-08T06:43:03.235Z,46.82
2023-01-08T06:45:55.780Z,46.63
2023-01-08T06:48:44.486Z,46.54
2023-01-08T06:51:33.156Z,46.52
2023-01-08T06:54:21.896Z,46.54
2023-01-08T06:57:11.576Z,46.31
2023-01-08T07:00:01.522Z,46.11
2023-01-08T07:02:50.178Z,46.50
2023-01-08T07:05:39.027Z,46.37
2023-01-08T07:08:27.687Z,46.32
2023-01-08T07:11:17.551Z,46.41
2023-01-08T07:14:06.202Z,46.51
2023-01-08T07:16:56.270Z,46.30
2023-01-08T07:19:44.961Z,46.03
2023-01-08T07:22:33.526Z,46.48
2023-01-08T07:25:22.172Z,46.27
2023-01-08T07:28:13.328Z,46.23
2023-01-08T07:31:05.032Z,46.35
2023-01-08T07:33:55.055Z,46.37
2023-01-08T07:36:43.754Z,46.11
2023-01-08T07:39:32.813Z,46.21
2023-01-08T07:42:22.729Z,46.50
2023-01-08T07:45:12.078Z,46.15
2023-01-08T07:48:00.876Z,46.21
2023-01-08T07:50:50.919Z,46.10
2023-01-08T07:53:39.608Z,46.19
2023-01-08T07:56:30.698Z,46.70
2023-01-08T07:59:19.468Z,46.48
2023-01-08T08:02:08.713Z,46.44
2023-01-08T08:04:57.423Z,46.54
2023-01-08T08:07:47.520Z,46.49
2023-01-08T08:10:36.257Z,46.27
2023-01-08T08:13:24.840Z,46.17
2023-01-08T08:16:13.856Z,46.60
2023-01-08T08:19:02.655Z,46.08
2023-01-08T08:21:51.337Z,46.55
2023-01-08T08:24:41.387Z,46.51
2023-01-08T08:27:30.059Z,46.42
2023-01-08T08:30:18.653Z,46.49
2023-01-08T08:33:11.151Z,46.28
2023-01-08T08:36:00.070Z,45.99
2023-01-08T08:38:48.732Z,46.60
2023-01-08T08:41:38.945Z,46.13
2023-01-08T08:44:27.573Z,45.94
2023-01-08T08:47:16.338Z,46.31
2023-01-08T08:50:08.752Z,46.43
2023-01-08T08:53:01.400Z,46.43
2023-01-08T08:55:50.057Z,45.87
2023-01-08T08:58:41.692Z,45.66
2023-01-08T09:01:31.401Z,45.61
2023-01-08T09:04:20.176Z,45.08
2023-01-08T09:07:08.823Z,43.80
2023-01-08T09:09:57.448Z,43.36
2023-01-08T09:12:46.071Z,39.00
2023-01-08T09:15:36.237Z,37.37
2023-01-08T09:18:24.891Z,36.34
2023-01-08T09:21:13.463Z,36.00
2023-01-08T09:24:02.089Z,35.42
2023-01-08T09:26:50.697Z,36.46
2023-01-08T09:29:39.427Z,36.67
2023-01-08T09:32:29.524Z,36.97
2023-01-08T09:35:18.278Z,37.20
2023-01-08T09:38:06.887Z,37.23
2023-01-08T09:40:58.765Z,37.94
2023-01-08T09:43:49.547Z,37.28
2023-01-08T09:46:38.343Z,36.94
2023-01-08T09:49:33.496Z,36.44
2023-01-08T09:52:22.216Z,36.51
2023-01-08T09:55:14.520Z,36.71
2023-01-08T09:58:03.599Z,36.57
2023-01-08T10:00:52.799Z,36.18
2023-01-08T10:03:43.484Z,37.52
2023-01-08T10:06:33.953Z,38.21
2023-01-08T10:09:26.891Z,38.40
2023-01-08T10:12:15.867Z,38.44
2023-01-08T10:15:07.126Z,37.77
2023-01-08T10:18:03.860Z,38.12
2023-01-08T10:20:54.632Z,38.24
2023-01-08T10:23:55.235Z,38.14
2023-01-08T10:26:47.829Z,37.67
2023-01-08T10:29:36.996Z,37.93
2023-01-08T10:32:30.145Z,37.87
2023-01-08T10:35:21.777Z,38.23
2023-01-08T10:38:25.897Z,38.55
2023-01-08T10:41:16.661Z,39.01
2023-01-08T10:44:06.995Z,39.01
2023-01-08T10:46:57.656Z,38.63
2023-01-08T10:49:47.043Z,38.63
2023-01-08T10:52:36.739Z,38.40
2023-01-08T10:55:28.272Z,38.55
2023-01-08T10:58:18.300Z,38.33
2023-01-08T11:01:14.491Z,38.15
2023-01-08T11:04:05.289Z,38.15
2023-01-08T11:06:59.623Z,38.50
2023-01-08T11:09:50.158Z,38.02
2023-01-08T11:12:41.049Z,38.30
2023-01-08T11:15:36.436Z,38.07
2023-01-08T11:18:28.505Z,37.60
2023-01-08T11:21:22.935Z,37.29
2023-01-08T11:24:21.120Z,36.86
2023-01-08T11:27:14.059Z,37.10
2023-01-08T11:30:06.915Z,37.97
2023-01-08T11:33:02.709Z,38.97
2023-01-08T11:35:55.099Z,39.56
2023-01-08T11:38:43.701Z,39.92
2023-01-08T11:41:46.136Z,39.02
2023-01-08T11:44:41.882Z,38.85
2023-01-08T11:47:42.069Z,38.49
2023-01-08T11:50:37.220Z,38.46
2023-01-08T11:53:31.423Z,38.66
2023-01-08T11:56:22.798Z,38.69
2023-01-08T11:59:18.432Z,39.05
2023-01-08T12:02:18.427Z,38.78
2023-01-08T12:05:27.421Z,39.08
2023-01-08T12:08:23.416Z,39.37
2023-01-08T12:11:17.110Z,39.76
2023-01-08T12:14:19.731Z,40.30
2023-01-08T12:17:34.210Z,40.28
2023-01-08T12:20:30.366Z,39.37
2023-01-08T12:23:28.778Z,39.61
2023-01-08T12:26:21.823Z,39.74
2023-01-08T12:29:31.486Z,40.47
2023-01-08T12:32:27.707Z,39.88
2023-01-08T12:35:19.222Z,39.13
2023-01-08T12:38:11.479Z,39.32
2023-01-08T12:41:05.681Z,38.80
2023-01-08T12:43:57.513Z,38.34
2023-01-08T12:46:47.109Z,38.49
2023-01-08T12:49:40.621Z,38.02
2023-01-08T12:52:36.656Z,37.38
2023-01-08T12:55:35.686Z,37.16
2023-01-08T12:58:39.007Z,36.17
2023-01-08T13:01:34.602Z,36.34
2023-01-08T13:04:23.294Z,36.08
2023-01-08T13:07:14.475Z,35.91
2023-01-08T13:10:05.429Z,35.64
2023-01-08T13:12:55.489Z,35.21
2023-01-08T13:15:45.761Z,35.13
2023-01-08T13:18:34.517Z,35.37
2023-01-08T13:21:31.793Z,35.38
2023-01-08T13:24:29.513Z,35.47
2023-01-08T13:27:30.471Z,35.12
2023-01-08T13:30:40.602Z,35.28
2023-01-08T13:33:41.715Z,35.76
2023-01-08T13:36:32.067Z,37.07
2023-01-08T13:39:24.480Z,36.67
2023-01-08T13:42:25.251Z,37.11
2023-01-08T13:45:14.900Z,36.88
2023-01-08T13:48:03.693Z,37.12
2023-01-08T13:50:54.234Z,36.66
2023-01-08T13:53:43.718Z,36.20
2023-01-08T13:56:33.082Z,37.55
2023-01-08T13:59:38.785Z,38.36
2023-01-08T14:02:30.939Z,38.93
2023-01-08T14:05:30.777Z,39.11
2023-01-08T14:08:27.154Z,39.52
2023-01-08T14:11:15.793Z,39.58
2023-01-08T14:14:04.749Z,39.59
2023-01-08T14:16:55.556Z,39.81
2023-01-08T14:19:44.643Z,40.23
2023-01-08T14:22:35.942Z,40.11
2023-01-08T14:25:26.096Z,40.24
2023-01-08T14:28:18.581Z,40.32
2023-01-08T14:31:07.338Z,40.35
2023-01-08T14:33:57.114Z,40.68
2023-01-08T14:36:46.362Z,40.97
2023-01-08T14:39:38.301Z,40.74
2023-01-08T14:42:44.010Z,40.83
2023-01-08T14:45:34.514Z,41.13
2023-01-08T14:48:25.770Z,41.12
2023-01-08T14:51:17.518Z,41.07
2023-01-08T14:54:08.474Z,41.20
2023-01-08T14:57:00.891Z,41.21
2023-01-08T14:59:56.023Z,41.33
2023-01-08T15:02:44.799Z,41.61
2023-01-08T15:05:34.943Z,41.55
2023-01-08T15:08:26.120Z,41.55
2023-01-08T15:11:23.604Z,41.61
2023-01-08T15:14:16.565Z,41.76
2023-01-08T15:17:11.323Z,42.02
2023-01-08T15:20:01.949Z,41.71
2023-01-08T15:22:50.676Z,41.99
2023-01-08T15:25:39.400Z,41.81
2023-01-08T15:28:28.255Z,42.40
2023-01-08T15:31:25.976Z,42.17
2023-01-08T15:34:16.360Z,42.14
2023-01-08T15:37:05.380Z,42.72
2023-01-08T15:39:53.989Z,42.62
2023-01-08T15:43:00.146Z,42.81
2023-01-08T15:45:50.268Z,42.50
2023-01-08T15:48:38.953Z,42.44
2023-01-08T15:51:30.203Z,42.24
2023-01-08T15:54:19.163Z,41.83
2023-01-08T15:57:07.798Z,41.90
2023-01-08T15:59:56.407Z,42.02
2023-01-08T16:02:47.072Z,42.39
2023-01-08T16:05:36.529Z,42.48
2023-01-08T16:08:26.674Z,42.51
2023-01-08T16:11:15.650Z,42.42
2023-01-08T16:14:04.400Z,42.91
2023-01-08T16:16:53.038Z,42.75
2023-01-08T16:19:41.663Z,42.67
2023-01-08T16:22:30.302Z,42.66
2023-01-08T16:25:20.411Z,42.85
2023-01-08T16:28:09.012Z,42.61
2023-01-08T16:30:57.691Z,42.80
2023-01-08T16:33:46.438Z,42.84
2023-01-08T16:36:35.927Z,43.12
2023-01-08T16:39:24.587Z,42.95
2023-01-08T16:42:14.693Z,42.74
2023-01-08T16:45:03.466Z,42.93
2023-01-08T16:47:52.226Z,43.08
2023-01-08T16:50:40.893Z,43.95
2023-01-08T16:53:29.658Z,43.96
2023-01-08T16:56:18.265Z,43.80
2023-01-08T16:59:18.206Z,43.58
2023-01-08T17:02:11.439Z,43.30
2023-01-08T17:05:00.115Z,43.41
2023-01-08T17:07:53.051Z,43.48
2023-01-08T17:10:41.648Z,43.53
2023-01-08T17:13:30.300Z,43.61
2023-01-08T17:16:21.055Z,44.52
2023-01-08T17:19:10.147Z,44.67
2023-01-08T17:21:58.825Z,44.72
2023-01-08T17:24:48.858Z,44.61
2023-01-08T17:27:37.610Z,44.84
2023-01-08T17:30:26.343Z,44.41
2023-01-08T17:33:16.869Z,44.49
2023-01-08T17:36:11.437Z,44.09
2023-01-08T17:39:01.206Z,44.33
2023-01-08T17:42:07.412Z,44.30
2023-01-08T17:44:57.181Z,43.27
2023-01-08T17:47:45.837Z,40.07
2023-01-08T17:50:35.835Z,39.07
2023-01-08T17:53:25.126Z,38.38
2023-01-08T17:56:14.713Z,37.84
2023-01-08T17:59:03.514Z,37.07
2023-01-08T18:01:54.008Z,36.78
2023-01-08T18:04:43.305Z,36.21
2023-01-08T18:07:35.918Z,35.98
2023-01-08T18:10:25.096Z,35.84
2023-01-08T18:13:14.139Z,35.91
2023-01-08T18:16:04.135Z,37.46
2023-01-08T18:18:53.264Z,38.59
2023-01-08T18:21:41.827Z,38.97
2023-01-08T18:24:31.940Z,39.51
2023-01-08T18:27:20.517Z,39.75
2023-01-08T18:30:10.547Z,40.11
2023-01-08T18:32:59.092Z,40.32
2023-01-08T18:35:48.167Z,40.68
2023-01-08T18:38:38.110Z,40.82
2023-01-08T18:41:45.939Z,40.97
2023-01-08T18:44:34.670Z,41.76
2023-01-08T18:47:23.762Z,42.06
2023-01-08T18:50:13.150Z,42.06
2023-01-08T18:53:03.808Z,42.34
2023-01-08T18:55:52.430Z,42.24
2023-01-08T18:58:42.381Z,41.95
2023-01-08T19:01:31.533Z,42.00
2023-01-08T19:04:20.148Z,42.09
2023-01-08T19:07:08.800Z,42.38
2023-01-08T19:09:57.929Z,42.55
2023-01-08T19:12:46.686Z,42.43
2023-01-08T19:15:37.432Z,42.21
2023-01-08T19:18:26.104Z,41.60
2023-01-08T19:21:17.646Z,42.61
2023-01-08T19:24:06.851Z,43.28
2023-01-08T19:26:55.536Z,43.51
2023-01-08T19:29:44.179Z,43.48
2023-01-08T19:32:34.194Z,43.06
2023-01-08T19:35:22.829Z,42.43
2023-01-08T19:38:11.559Z,42.51
2023-01-08T19:41:00.831Z,42.63
2023-01-08T19:43:48.492Z,42.68
2023-01-08T19:46:37.889Z,42.75
2023-01-08T19:49:27.870Z,42.78
2023-01-08T19:52:16.581Z,42.66
2023-01-08T19:55:06.169Z,42.90
2023-01-08T19:57:55.613Z,42.91
2023-01-08T20:00:44.288Z,42.58
2023-01-08T20:03:32.986Z,42.85
2023-01-08T20:06:24.835Z,42.89
2023-01-08T20:09:13.431Z,42.68
2023-01-08T20:12:02.330Z,42.94
2023-01-08T20:14:50.887Z,43.28
2023-01-08T20:17:42.600Z,43.20
2023-01-08T20:20:31.263Z,43.31
2023-01-08T20:23:21.299Z,43.33
2023-01-08T20:26:14.100Z,43.62
2023-01-08T20:29:02.790Z,43.33
2023-01-08T20:31:56.734Z,43.51
2023-01-08T20:34:45.405Z,43.34
2023-01-08T20:37:34.587Z,43.39
2023-01-08T20:40:24.601Z,43.56
2023-01-08T20:43:13.253Z,43.75
2023-01-08T20:46:01.952Z,43.90
2023-01-08T20:48:50.666Z,43.83
2023-01-08T20:51:44.088Z,43.87
2023-01-08T20:54:33.014Z,43.90
2023-01-08T20:57:23.117Z,44.00
2023-01-08T21:00:13.182Z,43.71
2023-01-08T21:03:01.958Z,44.79
2023-01-08T21:05:50.546Z,44.40
2023-01-08T21:08:39.571Z,44.40
2023-01-08T21:11:28.484Z,44.87
2023-01-08T21:14:19.798Z,44.82
2023-01-08T21:17:08.523Z,44.71
2023-01-08T21:20:00.167Z,44.83
2023-01-08T21:22:48.879Z,44.83
2023-01-08T21:25:37.577Z,44.89
2023-01-08T21:28:27.031Z,44.90
2023-01-08T21:31:19.138Z,45.35
2023-01-08T21:34:09.436Z,45.15
2023-01-08T21:36:58.136Z,45.21
2023-01-08T21:39:46.751Z,44.83
2023-01-08T21:42:52.927Z,44.34
2023-01-08T21:45:41.815Z,44.53
2023-01-08T21:48:31.847Z,44.34
2023-01-08T21:51:38.265Z,45.02
2023-01-08T21:54:26.892Z,45.36
2023-01-08T21:57:16.647Z,45.41
2023-01-08T22:00:05.932Z,45.31
2023-01-08T22:02:54.528Z,45.39
2023-01-08T22:05:44.609Z,45.47
2023-01-08T22:08:33.554Z,45.95
2023-01-08T22:11:22.229Z,45.84
2023-01-08T22:14:10.832Z,46.18
2023-01-08T22:16:59.627Z,45.91
2023-01-08T22:19:48.356Z,45.93
2023-01-08T22:22:38.693Z,46.29
2023-01-08T22:25:27.426Z,46.57
2023-01-08T22:28:15.987Z,46.16
2023-01-08T22:31:06.932Z,46.50
2023-01-08T22:33:55.860Z,46.23
2023-01-08T22:36:44.530Z,45.84
2023-01-08T22:39:34.534Z,46.13
2023-01-08T22:42:25.059Z,46.23
2023-01-08T22:45:13.626Z,46.16
2023-01-08T22:48:02.341Z,46.17
2023-01-08T22:50:51.804Z,46.37
2023-01-08T22:53:40.574Z,46.68
2023-01-08T22:56:30.540Z,46.59
2023-01-08T22:59:21.139Z,46.74
2023-01-08T23:02:09.759Z,46.81
2023-01-08T23:04:58.443Z,46.63
2023-01-08T23:07:47.084Z,46.80
2023-01-08T23:10:36.169Z,46.92
2023-01-08T23:13:26.323Z,46.66
2023-01-08T23:16:17.562Z,46.96
2023-01-08T23:19:06.404Z,46.77
2023-01-08T23:21:55.323Z,46.87
2023-01-08T23:24:43.973Z,46.82
2023-01-08T23:27:33.470Z,46.80
2023-01-08T23:30:23.591Z,46.67
2023-01-08T23:33:12.213Z,47.18
2023-01-08T23:36:00.907Z,46.85
2023-01-08T23:38:53.767Z,47.04
2023-01-08T23:41:42.379Z,47.03
2023-01-08T23:44:31.002Z,46.90
2023-01-08T23:47:21.050Z,46.74
2023-01-08T23:50:11.180Z,46.84
2023-01-08T23:53:00.127Z,46.85
2023-01-08T23:55:48.740Z,46.91
2023-01-08T23:58:37.807Z,46.94
